Time;durP1;ratioP1;P1;durP2;ratioP2;P2;SDS_P1;SDS_P2;PMS_P1;PMS_P2;Temp;Humidity;BMP_temperature;BMP_pressure;BME280_temperature;BME280_humidity;BME280_pressure;Samples;Min_cycle;Max_cycle;Signal;HPM_P1;HPM_P2
2022/07/16 00:01:23;;;;;;;4.31;2.92;;;;;;;21.35;56.53;100607.48;465807;114;930462;-75
2022/07/16 00:02:27;;;;;;;3.97;3.33;;;;;;;21.31;56.37;100605.58;465896;114;922538;-75
2022/07/16 00:03:30;;;;;;;4.86;3.58;;;;;;;21.29;56.34;100607.79;465985;114;922518;-75
2022/07/16 00:04:33;;;;;;;4.26;2.79;;;;;;;21.26;56.36;100602.83;465963;114;930476;-74
2022/07/16 00:05:36;;;;;;;3.29;2.90;;;;;;;21.25;56.41;100602.00;466059;114;922870;-75
2022/07/16 00:06:40;;;;;;;5.10;2.87;;;;;;;21.25;56.37;100602.00;465458;114;922510;-74
2022/07/16 00:07:42;;;;;;;3.69;3.35;;;;;;;21.24;56.38;100603.11;463619;114;922641;-75
2022/07/16 00:08:46;;;;;;;3.88;2.94;;;;;;;21.25;56.36;100606.71;463653;114;922679;-75
2022/07/16 00:09:49;;;;;;;3.96;2.81;;;;;;;21.23;56.27;100607.82;463640;114;922505;-75
2022/07/16 00:10:52;;;;;;;7.51;2.96;;;;;;;21.22;56.12;100616.45;463633;114;922488;-75
2022/07/16 00:11:55;;;;;;;7.56;3.25;;;;;;;21.18;55.93;100621.71;463643;114;922577;-75
2022/07/16 00:12:58;;;;;;;3.99;2.74;;;;;;;21.17;55.79;100633.91;463665;114;923025;-75
2022/07/16 00:14:01;;;;;;;4.70;2.47;;;;;;;21.14;55.73;100626.17;463692;114;922932;-75
2022/07/16 00:15:05;;;;;;;5.19;3.01;;;;;;;21.13;55.84;100627.25;463627;114;922568;-74
2022/07/16 00:16:09;;;;;;;3.41;2.66;;;;;;;21.13;55.91;100626.42;463488;114;922626;-75
2022/07/16 00:17:12;;;;;;;4.86;2.76;;;;;;;21.14;55.95;100625.31;463539;114;923019;-75
2022/07/16 00:19:37;;;;;;;3.71;2.62;;;;;;;21.16;55.72;100612.87;463467;114;922532;-75
2022/07/16 00:20:40;;;;;;;6.16;2.91;;;;;;;21.16;55.71;100615.64;463596;114;923001;-74
2022/07/16 00:21:45;;;;;;;3.17;2.83;;;;;;;21.17;55.70;100610.92;463660;114;922653;-75
2022/07/16 00:22:48;;;;;;;4.26;2.52;;;;;;;21.17;55.78;100606.19;463493;114;922618;-74
2022/07/16 00:23:51;;;;;;;6.21;2.51;;;;;;;21.19;55.59;100608.67;463673;114;922471;-75
2022/07/16 00:24:54;;;;;;;4.08;2.84;;;;;;;21.20;55.61;100605.63;463615;114;922866;-74
2022/07/16 00:25:57;;;;;;;3.95;2.73;;;;;;;21.21;55.54;100607.30;463611;114;922509;-75
2022/07/16 00:27:00;;;;;;;9.61;3.19;;;;;;;21.21;55.65;100612.84;463623;114;922869;-75
2022/07/16 00:28:03;;;;;;;4.71;3.81;;;;;;;21.21;55.65;100612.84;463651;114;923148;-75
2022/07/16 00:29:06;;;;;;;5.49;4.05;;;;;;;21.19;55.43;100609.52;463636;114;922514;-75
2022/07/16 00:30:10;;;;;;;5.59;4.53;;;;;;;21.17;55.59;100614.50;464069;113;923176;-75
2022/07/16 00:31:13;;;;;;;4.78;4.15;;;;;;;21.15;55.79;100619.52;463617;114;923028;-75
2022/07/16 00:32:16;;;;;;;6.56;5.08;;;;;;;21.14;55.89;100625.31;463678;114;922751;-75
2022/07/16 00:33:19;;;;;;;5.72;5.12;;;;;;;21.10;55.98;100625.06;463655;114;922526;-75
2022/07/16 00:34:23;;;;;;;4.77;4.13;;;;;;;21.09;56.06;100628.11;463667;112;923336;-75
2022/07/16 00:35:27;;;;;;;5.29;3.65;;;;;;;21.06;56.15;100626.72;463609;114;922507;-75
2022/07/16 00:36:31;;;;;;;7.42;4.62;;;;;;;21.03;56.35;100630.06;463424;114;930464;-75
2022/07/16 00:37:34;;;;;;;8.12;4.35;;;;;;;21.02;56.32;100625.62;463724;114;922581;-75
2022/07/16 00:38:36;;;;;;;4.44;3.87;;;;;;;21.00;56.40;100627.88;463682;114;922548;-75
2022/07/16 00:39:39;;;;;;;6.21;4.45;;;;;;;20.99;56.45;100628.98;463673;114;922650;-75
2022/07/16 00:40:43;;;;;;;4.54;3.39;;;;;;;20.99;56.53;100634.52;463663;114;922964;-74
2022/07/16 00:41:48;;;;;;;5.71;3.91;;;;;;;20.97;56.48;100633.97;463703;114;922580;-75
2022/07/16 00:42:51;;;;;;;5.46;4.07;;;;;;;20.94;56.46;100629.00;463455;114;922519;-75
2022/07/16 00:44:03;;;;;;;7.06;3.94;;;;;;;20.92;56.44;100633.98;463649;114;922558;-74
2022/07/16 00:45:07;;;;;;;7.93;3.97;;;;;;;20.90;56.44;100638.97;463506;114;923091;-75
2022/07/16 00:46:11;;;;;;;4.03;3.54;;;;;;;20.88;56.58;100632.06;463519;114;922661;-75
2022/07/16 00:47:14;;;;;;;4.78;4.28;;;;;;;20.86;56.73;100635.11;463672;114;923101;-75
2022/07/16 00:48:17;;;;;;;7.31;3.81;;;;;;;20.85;56.86;100636.21;463647;114;922644;-75
2022/07/16 00:49:20;;;;;;;11.63;3.97;;;;;;;20.87;56.95;100638.71;463613;114;922553;-75
2022/07/16 00:50:23;;;;;;;8.65;4.06;;;;;;;20.88;57.08;100632.06;463524;114;922532;-75
2022/07/16 00:51:28;;;;;;;6.77;3.77;;;;;;;20.90;57.17;100638.97;463523;114;930506;-75
2022/07/16 00:52:36;;;;;;;5.13;3.88;;;;;;;20.91;57.24;100637.86;463537;114;922798;-75
2022/07/16 00:53:39;;;;;;;5.13;3.74;;;;;;;20.93;57.26;100635.65;463416;114;922594;-75
2022/07/16 00:54:42;;;;;;;6.37;3.62;;;;;;;20.97;57.21;100644.22;463558;114;922853;-76
2022/07/16 00:55:45;;;;;;;5.19;4.00;;;;;;;20.98;57.18;100641.17;463656;114;922886;-75
2022/07/16 00:56:48;;;;;;;5.91;5.14;;;;;;;20.99;57.18;100651.16;463652;114;922533;-74
2022/07/16 00:57:52;;;;;;;9.27;7.52;;;;;;;21.00;57.12;100652.83;463634;114;922903;-74
2022/07/16 00:58:56;;;;;;;8.56;7.43;;;;;;;21.02;57.11;100653.35;463677;114;923182;-75
2022/07/16 00:59:59;;;;;;;10.63;8.13;;;;;;;21.02;57.03;100656.12;463476;114;923082;-75
2022/07/16 01:01:02;;;;;;;10.76;8.71;;;;;;;21.03;57.01;100648.64;463629;114;922573;-74
2022/07/16 01:02:05;;;;;;;12.99;9.43;;;;;;;21.04;57.00;100650.30;463669;114;922923;-75
2022/07/16 01:03:09;;;;;;;12.77;10.94;;;;;;;21.04;56.99;100651.14;463614;114;922656;-75
2022/07/16 01:04:14;;;;;;;14.80;10.51;;;;;;;21.03;56.96;100655.02;463542;114;923041;-75
2022/07/16 01:05:18;;;;;;;15.91;10.78;;;;;;;21.02;56.94;100650.58;463212;114;922522;-75
2022/07/16 01:06:23;;;;;;;12.12;10.74;;;;;;;21.02;56.93;100647.81;457777;114;922614;-75
2022/07/16 01:07:27;;;;;;;15.84;12.28;;;;;;;21.01;56.97;100648.08;446572;118;922532;-75
2022/07/16 01:08:32;;;;;;;14.24;11.86;;;;;;;21.02;57.00;100644.20;438687;120;922495;-75
2022/07/16 01:09:36;;;;;;;11.71;9.72;;;;;;;21.01;57.02;100650.85;438585;121;930430;-75
2022/07/16 01:10:40;;;;;;;15.16;11.05;;;;;;;21.00;57.03;100650.05;438727;120;922933;-75
2022/07/16 01:11:44;;;;;;;15.38;11.21;;;;;;;20.98;56.91;100655.03;438625;120;930356;-74
2022/07/16 01:12:48;;;;;;;11.64;10.37;;;;;;;20.96;56.81;100657.25;438713;120;923117;-75
2022/07/16 01:13:51;;;;;;;12.19;10.43;;;;;;;20.91;56.79;100657.27;438765;120;923192;-75
2022/07/16 01:14:56;;;;;;;13.28;10.59;;;;;;;20.88;56.92;100652.30;443303;119;930368;-75
2022/07/16 01:15:59;;;;;;;11.56;9.70;;;;;;;20.87;57.04;100652.57;446509;118;922566;-75
2022/07/16 01:17:02;;;;;;;14.82;10.22;;;;;;;20.85;57.15;100655.61;454379;116;923308;-75
2022/07/16 01:18:05;;;;;;;10.43;9.24;;;;;;;20.85;57.28;100650.07;446620;118;922828;-75
2022/07/16 01:19:10;;;;;;;11.82;8.86;;;;;;;20.86;57.39;100645.36;454366;116;922960;-75
2022/07/16 01:20:14;;;;;;;10.12;8.50;;;;;;;20.86;57.31;100645.36;446428;118;922699;-75
2022/07/16 01:21:17;;;;;;;11.63;9.33;;;;;;;20.85;57.31;100658.39;454353;116;922587;-75
2022/07/16 01:22:22;;;;;;;11.45;9.20;;;;;;;20.84;57.33;100659.49;446641;118;922615;-75
2022/07/16 01:23:25;;;;;;;9.75;8.66;;;;;;;20.83;57.36;100652.31;454202;116;923059;-75
2022/07/16 01:24:28;;;;;;;10.00;8.76;;;;;;;20.83;57.46;100655.09;446560;118;922520;-75
2022/07/16 01:25:32;;;;;;;9.18;7.95;;;;;;;20.82;57.46;100642.33;454366;116;923302;-75
2022/07/16 01:26:35;;;;;;;8.98;7.78;;;;;;;20.82;57.55;100647.88;446622;118;922596;-75
2022/07/16 01:27:38;;;;;;;11.79;8.51;;;;;;;20.82;57.64;100645.10;454395;116;922580;-75
2022/07/16 01:28:41;;;;;;;10.04;8.23;;;;;;;20.83;57.64;100649.55;446698;118;922539;-75
2022/07/16 01:29:45;;;;;;;9.79;8.80;;;;;;;20.83;57.69;100655.09;451548;116;922532;-74
2022/07/16 01:30:48;;;;;;;10.11;8.34;;;;;;;20.84;57.58;100644.83;446677;118;922922;-75
2022/07/16 01:31:51;;;;;;;10.99;8.48;;;;;;;20.81;57.56;100652.59;446565;118;923761;-74
2022/07/16 01:32:54;;;;;;;11.94;7.53;;;;;;;20.82;57.58;100647.88;446579;118;930481;-75
2022/07/16 01:35:18;;;;;;;10.41;9.32;;;;;;;20.79;57.75;100654.80;444510;119;922595;-75
2022/07/16 01:36:22;;;;;;;10.83;7.84;;;;;;;20.80;57.85;100655.62;443720;119;922886;-75
2022/07/16 01:37:25;;;;;;;7.81;7.09;;;;;;;20.79;57.86;100653.96;443718;119;923183;-75
2022/07/16 01:38:28;;;;;;;11.48;7.14;;;;;;;20.77;57.69;100645.95;443742;119;922472;-75
2022/07/16 01:39:34;;;;;;;7.78;6.71;;;;;;;20.75;57.69;100647.33;443725;119;922542;-75
2022/07/16 01:40:37;;;;;;;7.75;6.86;;;;;;;20.73;57.81;100646.80;443519;119;923294;-75
2022/07/16 01:41:41;;;;;;;9.75;6.69;;;;;;;20.72;57.85;100653.45;443750;119;922515;-75
2022/07/16 01:42:46;;;;;;;9.52;6.62;;;;;;;20.71;57.96;100649.01;443488;119;923057;-75
2022/07/16 01:43:50;;;;;;;9.62;7.03;;;;;;;20.71;58.03;100649.01;443733;119;922550;-75
2022/07/16 01:44:53;;;;;;;7.67;6.88;;;;;;;20.69;57.99;100656.76;443670;119;923116;-75
2022/07/16 01:45:57;;;;;;;10.45;8.26;;;;;;;20.68;58.01;100655.09;443736;119;922558;-74
2022/07/16 01:47:01;;;;;;;11.39;9.32;;;;;;;20.66;57.97;100658.16;443587;119;923040;-75
2022/07/16 01:48:05;;;;;;;12.76;9.63;;;;;;;20.63;58.06;100650.39;443619;119;930204;-75
2022/07/16 01:49:08;;;;;;;11.22;9.34;;;;;;;20.60;57.95;100652.91;443720;119;922564;-75
2022/07/16 01:50:11;;;;;;;11.04;9.78;;;;;;;20.57;58.10;100653.45;443698;119;922553;-75
2022/07/16 01:51:14;;;;;;;11.43;10.03;;;;;;;20.55;58.21;100647.37;443677;119;930393;-74
2022/07/16 01:52:19;;;;;;;14.74;11.48;;;;;;;20.54;58.30;100652.08;443766;119;922835;-75
2022/07/16 01:53:23;;;;;;;16.42;12.73;;;;;;;20.53;58.48;100649.58;443560;119;923223;-75
2022/07/16 01:54:26;;;;;;;14.08;12.05;;;;;;;20.52;58.58;100650.69;443706;119;922713;-75
2022/07/16 01:55:29;;;;;;;13.28;10.93;;;;;;;20.52;58.74;100653.45;443699;119;922467;-75
2022/07/16 01:56:33;;;;;;;15.69;11.73;;;;;;;20.52;58.79;100653.45;443636;119;922528;-75
2022/07/16 01:57:36;;;;;;;16.31;12.47;;;;;;;20.53;58.89;100652.35;443749;119;923090;-75
2022/07/16 01:58:39;;;;;;;18.35;12.66;;;;;;;20.55;59.03;100658.45;443738;119;922900;-74
2022/07/16 01:59:44;;;;;;;16.17;12.98;;;;;;;20.57;59.08;100658.98;443730;119;922596;-75
2022/07/16 02:00:47;;;;;;;21.52;14.79;;;;;;;20.56;58.99;100657.35;443578;119;922560;-75
2022/07/16 02:01:50;;;;;;;23.39;14.86;;;;;;;20.55;59.00;100653.75;443656;119;930503;-74
2022/07/16 02:02:53;;;;;;;21.51;13.25;;;;;;;20.52;59.02;100651.52;447958;117;922929;-75
2022/07/16 02:03:56;;;;;;;13.74;11.32;;;;;;;20.51;59.02;100654.59;451401;117;922632;-74
2022/07/16 02:04:59;;;;;;;13.12;11.34;;;;;;;20.50;59.10;100655.69;451406;117;922534;-74
2022/07/16 02:06:02;;;;;;;10.59;9.13;;;;;;;20.47;59.12;100656.23;450939;117;923036;-75
2022/07/16 02:07:05;;;;;;;5.99;5.29;;;;;;;20.44;59.04;100651.27;448201;118;922603;-75
2022/07/16 02:08:08;;;;;;;7.02;4.32;;;;;;;20.40;58.86;100654.58;447103;118;922593;-75
2022/07/16 02:09:11;;;;;;;5.84;4.25;;;;;;;20.36;58.73;100653.48;462137;114;922918;-75
2022/07/16 02:10:16;;;;;;;6.24;2.93;;;;;;;20.33;58.62;100653.21;461679;114;922602;-75
2022/07/16 02:11:19;;;;;;;4.07;2.76;;;;;;;20.28;58.34;100648.48;452916;117;922776;-75
2022/07/16 02:12:22;;;;;;;3.08;2.79;;;;;;;20.26;58.29;100647.08;453369;115;922626;-74
2022/07/16 02:13:25;;;;;;;4.57;4.14;;;;;;;20.25;58.39;100651.78;462089;114;922448;-75
2022/07/16 02:14:28;;;;;;;6.36;3.76;;;;;;;20.25;58.57;100649.02;462137;114;922563;-74
2022/07/16 02:15:32;;;;;;;4.77;3.54;;;;;;;20.27;58.65;100652.35;462141;114;922483;-75
2022/07/16 02:16:35;;;;;;;9.34;4.14;;;;;;;20.29;58.60;100652.88;462039;114;922522;-75
2022/07/16 02:17:38;;;;;;;3.73;3.00;;;;;;;20.31;58.35;100653.48;462057;114;930531;-75
2022/07/16 02:18:41;;;;;;;3.82;2.69;;;;;;;20.31;58.17;100650.71;462070;114;922530;-74
2022/07/16 02:19:44;;;;;;;3.03;2.72;;;;;;;20.31;58.15;100649.84;462156;114;922462;-74
2022/07/16 02:20:47;;;;;;;7.42;3.13;;;;;;;20.31;58.12;100650.71;462119;114;922782;-75
2022/07/16 02:21:51;;;;;;;4.43;2.54;;;;;;;20.31;57.99;100650.71;462132;114;922554;-75
2022/07/16 02:22:55;;;;;;;2.87;2.54;;;;;;;20.32;57.88;100649.61;462166;114;922533;-74
2022/07/16 02:23:59;;;;;;;3.42;2.63;;;;;;;20.31;57.85;100649.84;461964;114;922796;-74
2022/07/16 02:25:03;;;;;;;4.23;2.55;;;;;;;20.31;57.93;100652.61;462044;114;922409;-74
2022/07/16 02:26:07;;;;;;;3.76;3.16;;;;;;;20.33;57.97;100655.98;462047;114;922479;-75
2022/07/16 02:27:10;;;;;;;3.11;2.28;;;;;;;20.34;57.86;100650.14;462192;114;922515;-75
2022/07/16 02:28:13;;;;;;;4.17;2.68;;;;;;;20.34;57.55;100646.57;462133;114;922845;-74
2022/07/16 02:29:16;;;;;;;2.92;2.30;;;;;;;20.34;57.51;100655.68;462164;114;922517;-74
2022/07/16 02:30:19;;;;;;;2.42;2.11;;;;;;;20.34;57.49;100655.68;462046;114;922560;-75
2022/07/16 02:31:22;;;;;;;4.84;2.46;;;;;;;20.33;57.31;100655.98;462040;114;930394;-75
2022/07/16 02:32:27;;;;;;;4.18;2.84;;;;;;;20.31;57.13;100647.94;462137;114;923695;-74
2022/07/16 02:33:30;;;;;;;4.44;2.81;;;;;;;20.29;57.05;100650.11;461945;114;922613;-75
2022/07/16 02:34:33;;;;;;;3.04;2.21;;;;;;;20.28;56.98;100654.02;462101;114;930565;-75
2022/07/16 02:35:37;;;;;;;3.70;2.34;;;;;;;20.28;57.07;100647.64;462137;114;922539;-75
2022/07/16 02:36:41;;;;;;;4.29;2.77;;;;;;;20.29;57.14;100649.28;461951;114;922754;-75
2022/07/16 02:37:44;;;;;;;4.65;2.61;;;;;;;20.31;57.12;100652.61;462122;114;922464;-74
2022/07/16 02:38:47;;;;;;;3.15;2.44;;;;;;;20.31;57.04;100650.71;462127;114;922532;-75
2022/07/16 02:39:50;;;;;;;2.91;2.58;;;;;;;20.29;56.99;100655.66;462122;114;922994;-74
2022/07/16 02:40:53;;;;;;;4.87;2.58;;;;;;;20.28;56.85;100648.48;462080;114;922550;-75
2022/07/16 02:41:56;;;;;;;6.98;2.94;;;;;;;20.26;56.81;100647.91;462062;114;922544;-75
2022/07/16 02:43:00;;;;;;;3.14;2.85;;;;;;;20.26;56.79;100656.22;462118;114;922559;-75
2022/07/16 02:44:04;;;;;;;5.01;2.98;;;;;;;20.26;56.90;100650.69;461890;114;922558;-74
2022/07/16 02:45:07;;;;;;;2.84;2.42;;;;;;;20.27;56.84;100646.81;462123;114;923045;-74
2022/07/16 02:46:11;;;;;;;6.94;2.94;;;;;;;20.28;56.89;100648.48;461925;114;922548;-75
2022/07/16 02:47:14;;;;;;;6.39;3.22;;;;;;;20.29;56.81;100650.11;462044;114;930502;-75
2022/07/16 02:48:17;;;;;;;4.37;2.68;;;;;;;20.30;56.80;100650.95;462061;114;922982;-75
2022/07/16 02:49:20;;;;;;;3.89;2.61;;;;;;;20.30;56.81;100639.88;462112;114;922494;-75
2022/07/16 02:50:24;;;;;;;3.16;2.88;;;;;;;20.30;56.73;100645.41;461992;114;922966;-74
2022/07/16 02:51:27;;;;;;;4.19;3.19;;;;;;;20.29;56.77;100641.81;462011;114;922628;-74
2022/07/16 02:52:30;;;;;;;5.14;2.68;;;;;;;20.31;56.79;100650.71;462077;114;922533;-75
2022/07/16 02:53:33;;;;;;;3.53;2.64;;;;;;;20.32;56.76;100646.84;462122;114;922917;-75
2022/07/16 02:54:36;;;;;;;3.29;2.79;;;;;;;20.33;56.71;100651.27;462128;114;922995;-74
2022/07/16 02:55:39;;;;;;;6.19;3.34;;;;;;;20.34;56.74;100647.37;462101;114;922488;-75
2022/07/16 02:56:42;;;;;;;3.02;2.39;;;;;;;20.35;56.79;100643.50;462154;114;922771;-75
2022/07/16 02:57:45;;;;;;;4.08;3.01;;;;;;;20.36;56.80;100650.70;462060;114;922598;-75
2022/07/16 02:58:48;;;;;;;7.49;2.76;;;;;;;20.38;56.71;100654.04;464123;112;922497;-75
2022/07/16 02:59:51;;;;;;;4.36;2.62;;;;;;;20.39;56.70;100654.88;470350;112;922600;-75
2022/07/16 03:00:55;;;;;;;4.03;2.73;;;;;;;20.42;56.66;100648.77;470332;112;922520;-75
2022/07/16 03:01:58;;;;;;;4.80;2.80;;;;;;;20.42;56.62;100643.22;470320;112;922543;-75
2022/07/16 03:03:01;;;;;;;4.00;3.36;;;;;;;20.43;56.49;100646.83;470337;112;923123;-75
2022/07/16 03:04:04;;;;;;;3.62;3.17;;;;;;;20.42;56.38;100643.22;470332;112;923039;-75
2022/07/16 03:05:09;;;;;;;2.95;2.61;;;;;;;20.43;56.24;100646.83;470301;112;923061;-74
2022/07/16 03:06:12;;;;;;;4.51;2.72;;;;;;;20.42;56.16;100648.77;470048;112;923244;-75
2022/07/16 03:07:15;;;;;;;4.48;3.26;;;;;;;20.42;56.16;100645.16;463421;114;923046;-75
2022/07/16 03:08:18;;;;;;;3.82;2.55;;;;;;;20.40;56.06;100646.27;462743;114;922833;-74
2022/07/16 03:09:21;;;;;;;4.91;2.44;;;;;;;20.39;56.07;100638.26;462704;114;923218;-74
2022/07/16 03:10:26;;;;;;;6.24;2.92;;;;;;;20.38;56.05;100647.67;462510;114;922912;-75
2022/07/16 03:11:29;;;;;;;2.96;2.55;;;;;;;20.37;56.06;100652.38;462726;114;922471;-75
2022/07/16 03:12:32;;;;;;;5.79;3.37;;;;;;;20.37;55.99;100649.61;462698;114;922849;-74
2022/07/16 03:13:35;;;;;;;3.56;2.76;;;;;;;20.37;55.95;100651.54;462710;114;922816;-75
2022/07/16 03:14:39;;;;;;;4.12;3.01;;;;;;;20.38;56.02;100644.90;459707;114;922580;-75
2022/07/16 03:15:42;;;;;;;4.46;2.74;;;;;;;20.39;55.98;100643.80;454680;116;922512;-75
2022/07/16 03:16:44;;;;;;;5.89;3.14;;;;;;;20.39;56.00;100646.56;454686;116;922604;-75
2022/07/16 03:17:47;;;;;;;4.74;3.36;;;;;;;20.40;56.00;100639.89;454677;116;922649;-75
2022/07/16 03:18:51;;;;;;;3.51;3.22;;;;;;;20.40;55.97;100639.89;454709;116;922987;-75
2022/07/16 03:19:54;;;;;;;4.65;2.64;;;;;;;20.40;56.00;100639.89;454700;116;922552;-75
2022/07/16 03:20:57;;;;;;;3.67;3.34;;;;;;;20.41;55.99;100641.56;454742;116;922546;-75
2022/07/16 03:22:00;;;;;;;3.59;2.78;;;;;;;20.41;55.94;100641.56;454680;116;922476;-75
2022/07/16 03:23:03;;;;;;;3.33;2.81;;;;;;;20.42;55.96;100643.22;454702;116;922532;-75
2022/07/16 03:24:06;;;;;;;6.47;2.92;;;;;;;20.42;55.98;100643.22;454632;116;922924;-75
2022/07/16 03:25:09;;;;;;;7.44;2.98;;;;;;;20.43;56.00;100644.06;454628;116;922562;-75
2022/07/16 03:26:14;;;;;;;4.23;2.88;;;;;;;20.43;56.02;100638.52;454487;116;922641;-75
2022/07/16 03:27:17;;;;;;;3.11;2.72;;;;;;;20.45;56.06;100636.31;454674;116;922974;-75
2022/07/16 03:28:20;;;;;;;4.93;2.86;;;;;;;20.47;56.02;100637.67;454699;116;922521;-75
2022/07/16 03:29:23;;;;;;;4.79;3.14;;;;;;;20.49;55.92;100640.17;454704;116;923117;-75
2022/07/16 03:30:28;;;;;;;4.25;2.48;;;;;;;20.51;55.93;100640.74;459483;114;922542;-75
2022/07/16 03:31:31;;;;;;;4.06;2.79;;;;;;;20.54;55.83;100638.23;462610;114;930566;-75
2022/07/16 03:32:34;;;;;;;4.13;2.84;;;;;;;20.58;55.71;100641.27;462708;114;922588;-75
2022/07/16 03:33:37;;;;;;;2.92;2.66;;;;;;;20.60;55.55;100639.05;462711;114;922948;-75
2022/07/16 03:34:40;;;;;;;4.69;2.85;;;;;;;20.61;55.50;100630.47;462681;114;923051;-75
2022/07/16 03:35:43;;;;;;;3.68;2.73;;;;;;;20.64;55.45;100631.84;462669;114;923040;-75
2022/07/16 03:36:46;;;;;;;3.84;2.30;;;;;;;20.67;55.35;100628.52;462724;114;922573;-75
2022/07/16 03:39:11;;;;;;;3.51;2.38;;;;;;;20.74;55.30;100634.58;462464;114;922596;-75
2022/07/16 03:40:15;;;;;;;2.64;2.39;;;;;;;20.78;55.19;100639.27;462586;114;923523;-75
2022/07/16 03:41:18;;;;;;;2.54;2.23;;;;;;;20.81;55.12;100641.50;462719;114;923050;-75
2022/07/16 03:42:21;;;;;;;4.76;2.38;;;;;;;20.85;55.01;100643.70;462695;114;922555;-75
2022/07/16 03:43:24;;;;;;;6.84;2.26;;;;;;;20.87;54.91;100645.09;462676;114;922901;-75
2022/07/16 03:44:27;;;;;;;3.66;2.28;;;;;;;20.89;54.82;100644.81;462738;114;922990;-74
2022/07/16 03:45:30;;;;;;;4.34;2.33;;;;;;;20.90;54.60;100646.45;462733;114;922535;-75
2022/07/16 03:46:34;;;;;;;3.40;2.29;;;;;;;20.91;54.52;100654.49;462684;114;922561;-74
2022/07/16 03:47:37;;;;;;;4.34;2.24;;;;;;;20.92;54.45;100645.07;462475;114;922585;-75
2022/07/16 03:48:41;;;;;;;3.59;2.31;;;;;;;20.94;54.41;100647.57;462344;114;923081;-75
2022/07/16 03:49:44;;;;;;;3.31;2.26;;;;;;;;;;457903;116;922473;-75
2022/07/16 03:50:47;;;;;;;4.00;2.83;;;;;;;20.98;54.07;100643.95;457981;116;922875;-75
2022/07/16 03:51:50;;;;;;;4.79;2.36;;;;;;;20.99;53.96;100648.38;457994;116;922571;-75
2022/07/16 03:52:53;;;;;;;3.27;2.42;;;;;;;21.00;53.94;100644.50;457999;116;923060;-76
2022/07/16 03:53:56;;;;;;;2.89;2.21;;;;;;;21.02;53.92;100644.20;458020;116;922538;-75
2022/07/16 03:54:59;;;;;;;2.87;2.24;;;;;;;21.03;53.82;100645.87;458848;114;922488;-75
2022/07/16 03:56:02;;;;;;;2.70;2.31;;;;;;;21.04;53.82;100641.98;462701;114;922859;-75
2022/07/16 03:57:06;;;;;;;5.56;2.44;;;;;;;21.05;53.80;100640.88;462586;114;922618;-74
2022/07/16 03:58:08;;;;;;;3.76;2.44;;;;;;;21.07;53.80;100641.41;462626;114;922633;-75
2022/07/16 03:59:12;;;;;;;3.34;2.44;;;;;;;21.09;53.74;100641.97;462719;114;923450;-75
2022/07/16 04:00:16;;;;;;;2.81;2.19;;;;;;;21.10;53.70;100644.47;462626;114;922512;-75
2022/07/16 04:01:19;;;;;;;5.27;2.17;;;;;;;21.13;53.66;100637.51;462716;114;922784;-75
2022/07/16 04:02:23;;;;;;;2.45;2.22;;;;;;;21.14;53.63;100644.72;462581;114;922488;-75
2022/07/16 04:03:26;;;;;;;2.25;2.05;;;;;;;21.16;53.55;100640.59;462734;114;923114;-75
2022/07/16 04:04:29;;;;;;;2.42;2.23;;;;;;;21.18;53.40;100635.58;462713;114;922588;-75
2022/07/16 04:05:32;;;;;;;5.35;2.53;;;;;;;21.21;53.30;100637.80;462698;114;922480;-75
2022/07/16 04:06:35;;;;;;;2.63;2.13;;;;;;;21.21;53.28;100639.74;461765;114;922472;-75
2022/07/16 04:07:38;;;;;;;3.46;2.22;;;;;;;21.23;53.26;100633.92;465921;114;922544;-75
2022/07/16 04:08:41;;;;;;;4.14;2.19;;;;;;;21.23;53.28;100641.09;466148;114;922508;-75
2022/07/16 04:09:44;;;;;;;2.67;2.24;;;;;;;21.24;53.42;100633.61;466186;114;922480;-75
2022/07/16 04:10:48;;;;;;;2.62;2.24;;;;;;;21.25;53.47;100634.44;466154;114;922823;-75
2022/07/16 04:11:51;;;;;;;2.50;2.26;;;;;;;21.26;53.47;100634.17;466168;114;922499;-75
2022/07/16 04:12:53;;;;;;;4.72;2.32;;;;;;;21.27;53.43;100637.77;466087;114;922936;-75
2022/07/16 04:13:57;;;;;;;3.62;2.12;;;;;;;21.28;53.40;100644.98;466144;114;922994;-75
2022/07/16 04:15:00;;;;;;;2.55;2.33;;;;;;;21.27;53.22;100635.83;464271;114;922544;-75
2022/07/16 04:16:04;;;;;;;2.37;2.09;;;;;;;21.30;53.27;100640.80;463575;114;922666;-76
2022/07/16 04:17:07;;;;;;;3.14;2.69;;;;;;;21.31;53.16;100641.63;463465;114;930401;-75
2022/07/16 04:18:10;;;;;;;2.66;2.29;;;;;;;21.33;53.17;100643.02;463605;114;922542;-75
2022/07/16 04:19:13;;;;;;;3.36;2.50;;;;;;;21.35;53.18;100643.55;463612;114;922493;-75
2022/07/16 04:20:19;;;;;;;4.09;2.40;;;;;;;21.37;53.13;100638.55;463285;114;922597;-75
2022/07/16 04:21:22;;;;;;;4.36;2.83;;;;;;;21.39;53.11;100638.28;463581;114;923271;-75
2022/07/16 04:22:25;;;;;;;2.57;2.37;;;;;;;21.42;53.02;100634.92;463625;114;922729;-75
2022/07/16 04:23:28;;;;;;;4.22;2.35;;;;;;;21.43;53.00;100639.36;463604;114;922944;-75
2022/07/16 04:24:31;;;;;;;2.66;2.29;;;;;;;21.46;53.07;100641.55;463659;114;922587;-75
2022/07/16 04:25:34;;;;;;;2.63;2.43;;;;;;;21.47;53.09;100644.05;463674;114;922956;-75
2022/07/16 04:26:37;;;;;;;4.62;2.58;;;;;;;21.49;53.00;100636.28;463594;114;923062;-76
2022/07/16 04:27:41;;;;;;;4.06;2.99;;;;;;;21.53;52.97;100640.13;463558;114;922530;-75
2022/07/16 04:28:44;;;;;;;3.47;2.95;;;;;;;21.55;52.92;100637.91;463490;114;923015;-75
2022/07/16 04:29:47;;;;;;;3.11;2.59;;;;;;;21.58;52.93;100639.27;464856;113;922579;-75
2022/07/16 04:30:50;;;;;;;3.06;2.75;;;;;;;21.61;52.89;100641.48;463650;114;922583;-75
2022/07/16 04:31:54;;;;;;;2.62;2.41;;;;;;;21.62;52.84;100641.18;463606;114;922524;-74
2022/07/16 04:32:57;;;;;;;6.34;3.08;;;;;;;21.64;52.96;100638.95;463491;113;922534;-76
2022/07/16 04:34:00;;;;;;;2.72;2.53;;;;;;;21.67;53.11;100637.54;463603;114;922692;-76
2022/07/16 04:35:04;;;;;;;3.81;3.27;;;;;;;21.71;53.04;100644.20;463579;114;922678;-76
2022/07/16 04:36:07;;;;;;;5.30;2.64;;;;;;;21.74;53.13;100640.00;463500;114;923003;-76
2022/07/16 04:37:10;;;;;;;6.66;3.14;;;;;;;21.78;53.14;100638.30;463596;114;923036;-75
2022/07/16 04:38:13;;;;;;;4.36;2.84;;;;;;;21.80;53.01;100634.14;463597;114;922645;-76
2022/07/16 04:39:16;;;;;;;3.28;2.46;;;;;;;21.84;53.05;100631.60;463642;114;923522;-75
2022/07/16 04:40:21;;;;;;;7.54;2.71;;;;;;;21.88;52.94;100641.86;462865;114;922930;-73
2022/07/16 04:41:24;;;;;;;3.99;3.19;;;;;;;21.93;52.86;100646.55;463659;114;923111;-75
2022/07/16 04:42:27;;;;;;;6.32;3.20;;;;;;;21.95;52.83;100644.33;463635;114;922631;-76
2022/07/16 04:43:30;;;;;;;2.97;2.69;;;;;;;21.98;52.67;100639.05;463643;114;922554;-73
2022/07/16 04:44:33;;;;;;;3.26;2.98;;;;;;;21.99;52.56;100640.70;463634;114;922578;-76
2022/07/16 04:45:36;;;;;;;3.76;2.46;;;;;;;22.01;52.57;100627.34;463672;114;922686;-76
2022/07/16 04:46:39;;;;;;;4.08;2.36;;;;;;;22.04;52.52;100643.45;463636;114;922517;-76
2022/07/16 04:47:42;;;;;;;3.53;2.34;;;;;;;22.06;52.50;100629.25;463632;114;922501;-75
2022/07/16 04:48:45;;;;;;;3.58;2.88;;;;;;;22.09;52.56;100636.19;463619;114;922554;-75
2022/07/16 04:49:48;;;;;;;4.46;2.46;;;;;;;22.12;52.61;100628.09;463606;114;922520;-75
2022/07/16 04:50:51;;;;;;;6.75;2.61;;;;;;;22.16;52.61;100636.69;463620;114;922532;-76
2022/07/16 04:51:54;;;;;;;2.63;2.34;;;;;;;22.19;52.51;100645.26;463661;114;922526;-75
2022/07/16 04:52:57;;;;;;;4.50;3.02;;;;;;;22.23;52.38;100639.94;463604;114;922588;-75
2022/07/16 04:54:00;;;;;;;3.51;2.64;;;;;;;22.25;52.31;100641.33;463650;114;923283;-76
2022/07/16 04:55:04;;;;;;;4.86;2.83;;;;;;;22.28;52.33;100639.90;463601;114;923029;-75